Stations météo

réclame
Mon MeteoGroup
Melle, Belgique (6434): Température de l'air & dewpoint: 17.09.2018 04:00:00 - 23.09.2018 04:00:00 (CEST)Melle, Belgique (6434): Vitesse du vent & gusts: 17.09.2018 04:00:00 - 23.09.2018 04:00:00 (CEST)Melle, Belgique (6434): Direction du vent: 17.09.2018 04:00:00 - 23.09.2018 04:00:00 (CEST)Melle, Belgique (6434): reduced air pressure: 17.09.2018 04:00:00 - 23.09.2018 04:00:00 (CEST)Melle, Belgique (6434): Ensoleillement: 17.09.2018 04:00:00 - 23.09.2018 04:00:00 (CEST)Melle, Belgique (6434): Quantités de précipitations: 17.09.2018 04:00:00 - 23.09.2018 04:00:00 (CEST)
Date & Time tt [°C] td [°C] ff [km/h] ff [knt] fx [km/h] fx [knt] dd ppp [hPa] sd [min] rr [mm]
23.09.2018 04:00:00 11,3 11,2 9 5 14 8 ENE 1013,0 0 0,2
23.09.2018 03:00:00 11,2 11,1 9 5 14 8 E 1013,6 0 0,7
23.09.2018 02:00:00 11,1 10,9 11 6 17 9 E 1014,4 0 0,3
23.09.2018 01:00:00 11,0 10,9 10 6 17 9 E 1015,4 0 0,3
23.09.2018 00:00:00 10,9 10,7 8 5 15 8 E 1016,3 0 0,7
22.09.2018 23:00:00 10,7 10,5 9 5 14 7 ESE 1017,6 0 1,2
22.09.2018 22:00:00 10,9 10,5 6 3 9 5 ESE 1018,1 0 0,4
22.09.2018 21:00:00 10,9 10,1 5 3 10 5 S 1018,6 0 1,1
22.09.2018 20:00:00 11,4 10,4 4 2 8 4 S 1019,2 0 0,3
22.09.2018 19:00:00 11,9 10,4 6 3 13 7 SSW 1019,1 0 0,6
22.09.2018 18:00:00 12,4 10,5 4 2 15 8 SSW 1019,8 0 0,3
22.09.2018 17:00:00 13,1 9,7 9 5 20 11 WSW 1020,2 0 0,0
22.09.2018 16:00:00 13,2 10,4 12 7 27 14 WSW 1020,5 0 0,3
22.09.2018 15:00:00 13,4 10,3 12 7 27 15 W 1021,0 0 0,3
22.09.2018 14:00:00 14,8 10,0 14 8 26 14 W 1021,1 0 0,1
22.09.2018 13:00:00 13,8 11,5 16 9 31 17 SW 1020,8 0 0,1
22.09.2018 12:00:00 14,7 10,5 18 10 28 15 WSW 1020,7 30 0,0
22.09.2018 11:00:00 13,7 10,4 17 9 30 16 SW 1021,0 19 0,0
22.09.2018 10:00:00 12,7 10,1 16 9 26 14 SW 1020,5 5 0,0
22.09.2018 09:00:00 11,5 9,6 12 7 22 12 SW 1021,0 9 0,0
22.09.2018 08:00:00 10,7 9,1 11 6 21 11 SW 1020,6 0 0,0
22.09.2018 07:00:00 10,6 8,7 11 6 18 10 SW 1020,4 0 0,0
22.09.2018 06:00:00 10,5 8,4 14 7 20 11 SW 1020,2 0 0,0
22.09.2018 05:00:00 10,4 8,2 11 6 18 10 SW 1020,0 0 0,0
22.09.2018 04:00:00 10,7 7,7 11 6 18 10 SW 1020,3 0 0,0
22.09.2018 03:00:00 12,2 7,3 11 6 25 13 WSW 1019,7 0 0,0
22.09.2018 02:00:00 12,6 7,6 14 8 29 16 W 1019,3 0 0,0
22.09.2018 01:00:00 12,3 8,7 17 9 27 15 WSW 1018,7 0 0,0
22.09.2018 00:00:00 13,2 8,7 15 8 42 23 WSW 1017,9 0 0,0
21.09.2018 23:00:00 13,6 8,7 21 11 39 21 WSW 1017,1 0 0,0
21.09.2018 22:00:00 14,2 8,4 23 12 39 21 WSW 1016,4 0 0,0
21.09.2018 21:00:00 14,5 7,4 23 13 46 25 WSW 1015,5 0 0,0
21.09.2018 20:00:00 14,9 6,7 25 14 59 32 W 1014,3 28 0,0
21.09.2018 19:00:00 16,0 6,3 29 16 57 31 WSW 1013,4 47 0,1
21.09.2018 18:00:00 16,8 5,9 27 15 55 30 W 1012,9 46 0,0
21.09.2018 17:00:00 16,9 5,2 27 15 50 27 W 1012,6 51 0,0
21.09.2018 16:00:00 16,3 8,0 19 10 58 31 W 1012,3 49 0,0
21.09.2018 15:00:00 16,7 5,1 34 18 58 32 W 1011,9 56 0,0
21.09.2018 14:00:00 16,3 5,3 32 18 54 29 W 1010,9 52 0,0
21.09.2018 13:00:00 14,1 7,9 29 16 58 31 W 1010,2 - -
21.09.2018 12:00:00 15,0 8,8 30 16 57 31 W 1009,0 44 0,0
21.09.2018 11:00:00 14,4 11,4 19 10 39 21 W 1007,7 21 0,5
21.09.2018 10:00:00 15,1 13,6 16 9 29 16 WSW 1005,9 21 0,0
21.09.2018 09:00:00 14,5 13,3 19 10 47 26 WSW 1005,0 0 1,1
21.09.2018 08:00:00 14,7 12,5 32 18 59 32 W 1004,7 0 3,5
21.09.2018 07:00:00 17,4 15,2 28 15 59 32 SW 1002,6 0 0,2
21.09.2018 06:00:00 19,4 13,5 29 16 46 25 SSW 1003,0 0 0,0
21.09.2018 05:00:00 19,2 13,5 26 14 40 21 SSW 1003,5 0 0,0
21.09.2018 04:00:00 19,6 13,5 25 13 41 22 SSW 1004,7 0 0,0
21.09.2018 03:00:00 20,0 13,8 20 11 42 23 SW 1006,0 0 0,0
21.09.2018 02:00:00 20,7 13,8 22 12 41 22 SSW 1006,7 0 0,0
21.09.2018 01:00:00 20,7 13,6 19 11 38 21 SSW 1007,6 0 0,0
21.09.2018 00:00:00 21,0 13,7 21 11 38 20 SSW 1008,5 0 0,0
20.09.2018 23:00:00 20,8 13,6 20 11 35 19 SSW 1008,9 0 0,0
20.09.2018 22:00:00 20,9 13,6 18 10 30 16 S 1009,9 0 0,0
20.09.2018 21:00:00 21,2 13,2 16 8 32 18 SSW 1010,7 0 0,0
20.09.2018 20:00:00 21,6 13,7 14 8 26 14 S 1011,6 0 0,0
20.09.2018 19:00:00 23,0 13,6 18 10 37 20 SSW 1012,0 34 0,0
20.09.2018 18:00:00 23,6 13,7 21 11 39 21 SSW 1012,7 60 0,0
20.09.2018 17:00:00 23,5 13,4 24 13 39 21 SSW 1013,6 60 0,0
20.09.2018 16:00:00 23,6 13,2 24 13 37 20 SW 1014,3 60 0,0
20.09.2018 15:00:00 23,1 13,9 25 14 43 23 SW 1015,3 60 0,0
20.09.2018 14:00:00 22,6 14,7 22 12 37 20 SSW 1016,1 58 0,0
20.09.2018 13:00:00 20,6 15,0 16 9 35 19 WSW 1016,6 53 0,0
20.09.2018 12:00:00 19,7 14,7 21 11 36 19 WSW 1017,1 54 0,0
20.09.2018 11:00:00 19,1 14,7 23 12 35 19 SW 1017,1 60 0,0
20.09.2018 10:00:00 18,1 14,5 18 10 29 16 SW 1017,1 60 0,0
20.09.2018 09:00:00 16,3 13,9 12 7 21 11 SSW 1017,3 59 0,0
20.09.2018 08:00:00 15,5 13,4 11 6 17 9 SSW 1017,0 0 0,0
20.09.2018 07:00:00 15,7 13,2 11 6 21 12 SSW 1016,9 0 0,0
20.09.2018 06:00:00 15,9 13,1 12 7 19 10 SSW 1017,0 0 0,0
20.09.2018 05:00:00 16,5 13,3 11 6 18 10 SSW 1017,4 0 0,0
20.09.2018 04:00:00 16,2 13,3 10 5 16 8 S 1017,2 0 0,0
20.09.2018 03:00:00 17,2 13,5 8 5 16 8 WSW 1017,2 0 0,0
20.09.2018 02:00:00 16,8 13,3 7 4 13 7 WSW 1017,6 0 0,0
20.09.2018 01:00:00 17,0 13,4 7 4 15 8 SSW 1017,7 0 0,0
20.09.2018 00:00:00 17,7 13,5 10 5 14 8 S 1018,1 0 0,0
19.09.2018 23:00:00 18,6 13,7 10 5 16 9 S 1018,0 0 0,0
19.09.2018 22:00:00 19,1 13,9 9 5 13 7 S 1018,0 0 0,0
19.09.2018 21:00:00 19,5 13,9 8 5 13 7 S 1017,7 0 0,0
19.09.2018 20:00:00 21,0 13,9 7 4 23 12 SSW 1017,5 6 0,0
19.09.2018 19:00:00 22,2 13,9 12 6 38 20 SW 1017,4 11 0,0
19.09.2018 18:00:00 23,2 13,6 26 14 41 22 SW 1017,1 44 0,0
19.09.2018 17:00:00 23,2 13,6 21 11 39 21 SW 1017,1 60 0,0
19.09.2018 16:00:00 23,5 13,3 24 13 44 24 SW 1017,0 59 0,0
19.09.2018 15:00:00 23,7 13,0 25 14 44 24 SW 1016,9 60 0,0
19.09.2018 14:00:00 23,2 13,2 25 14 42 23 SW 1017,1 42 0,0
19.09.2018 13:00:00 22,3 13,5 22 12 41 22 WSW 1017,5 59 0,0
19.09.2018 12:00:00 21,2 13,5 21 11 36 20 WSW 1017,5 59 0,0
19.09.2018 11:00:00 19,7 14,4 19 10 30 16 SW 1017,2 60 0,0
19.09.2018 10:00:00 18,4 14,6 16 9 28 15 SW 1016,8 60 0,0
19.09.2018 09:00:00 16,9 14,6 11 6 21 12 SW 1016,7 45 0,0
19.09.2018 08:00:00 16,2 14,4 11 6 20 11 SSW 1016,0 0 0,0
19.09.2018 07:00:00 16,2 14,6 11 6 23 13 SSW 1015,6 0 0,0
19.09.2018 06:00:00 16,4 14,8 14 7 21 12 S 1015,6 0 0,0
19.09.2018 05:00:00 16,6 14,6 14 8 22 12 S 1015,9 0 0,0
19.09.2018 04:00:00 15,6 13,4 9 5 15 8 SE 1016,0 0 0,0
19.09.2018 03:00:00 15,8 13,5 8 4 14 8 SE 1016,2 0 0,0
19.09.2018 02:00:00 15,2 13,1 7 4 14 7 S 1016,6 0 0,0
19.09.2018 01:00:00 14,9 12,9 7 4 13 7 S 1016,5 0 0,0
19.09.2018 00:00:00 15,0 12,9 4 2 11 6 S 1016,2 0 0,0
18.09.2018 23:00:00 15,9 13,3 5 3 9 5 SSW 1016,1 0 0,0
18.09.2018 22:00:00 17,4 13,5 5 3 18 10 WSW 1016,2 0 0,0
18.09.2018 21:00:00 19,3 14,0 15 8 32 17 W 1016,0 0 0,0
18.09.2018 20:00:00 20,2 13,9 7 4 23 12 W 1015,2 0 0,0
18.09.2018 19:00:00 21,0 13,7 15 8 32 18 W 1014,7 19 0,0
18.09.2018 18:00:00 23,5 13,9 19 10 39 21 W 1014,2 60 0,0
18.09.2018 17:00:00 24,4 13,3 22 12 44 24 WSW 1013,8 60 0,0
18.09.2018 16:00:00 24,5 14,0 21 11 46 25 WSW 1013,6 60 0,1
18.09.2018 15:00:00 24,2 14,3 27 14 43 23 WSW 1013,3 57 0,0
18.09.2018 14:00:00 24,3 14,9 22 12 41 22 WSW 1013,1 60 0,0
18.09.2018 13:00:00 22,5 14,5 24 13 37 20 WSW 1013,0 60 0,0
18.09.2018 12:00:00 21,7 14,3 26 14 42 23 WSW 1012,6 60 0,0
18.09.2018 11:00:00 20,9 14,5 24 13 36 19 WSW 1012,3 60 0,0
18.09.2018 10:00:00 20,0 13,3 16 9 34 18 SW 1011,9 60 0,0
18.09.2018 09:00:00 19,4 11,2 14 8 24 13 SW 1011,5 60 0,0
18.09.2018 08:00:00 18,3 10,1 14 8 25 14 SSW 1010,7 7 0,0
18.09.2018 07:00:00 18,7 9,9 15 8 26 14 SSW 1010,2 0 0,0
18.09.2018 06:00:00 19,4 9,3 16 9 27 15 S 1009,8 0 0,0
18.09.2018 05:00:00 19,2 8,5 14 7 25 13 S 1010,3 0 0,0
18.09.2018 04:00:00 19,2 7,5 16 9 26 14 S 1010,6 0 0,0
18.09.2018 03:00:00 18,5 7,6 11 6 26 14 S 1011,2 0 0,0
18.09.2018 02:00:00 17,5 8,0 11 6 16 9 SE 1012,0 0 0,0
18.09.2018 01:00:00 17,4 8,3 10 5 13 7 SE 1012,6 0 0,0
18.09.2018 00:00:00 16,4 8,7 8 5 12 6 SE 1013,1 0 0,0
17.09.2018 23:00:00 16,9 8,6 8 4 14 8 SSE 1013,5 0 0,0
17.09.2018 22:00:00 13,0 9,3 5 3 8 4 ESE 1013,9 0 0,0
17.09.2018 21:00:00 14,8 10,0 4 2 8 4 E 1014,3 0 0,0
17.09.2018 20:00:00 18,7 9,5 4 2 11 6 S 1014,6 46 0,0
17.09.2018 19:00:00 24,1 9,0 6 3 12 7 SSE 1014,9 60 0,0
17.09.2018 18:00:00 24,9 9,0 7 4 20 11 SSE 1015,3 60 0,0
17.09.2018 17:00:00 25,6 9,2 11 6 24 13 SW 1016,2 60 0,0
17.09.2018 16:00:00 24,8 9,4 12 6 23 12 SSW 1017,0 60 0,0
17.09.2018 15:00:00 24,5 9,9 13 7 23 12 SSW 1017,7 60 0,0
17.09.2018 14:00:00 23,5 10,3 18 10 26 14 SSW 1018,4 60 0,0
17.09.2018 13:00:00 22,6 11,0 13 7 23 13 SSW 1018,9 60 0,0
17.09.2018 12:00:00 20,5 11,9 12 6 19 11 SSW 1019,5 60 0,0
17.09.2018 11:00:00 18,9 11,7 14 8 19 11 SSW 1019,5 60 0,0
17.09.2018 10:00:00 16,8 11,7 8 4 11 6 S 1019,7 60 0,0
17.09.2018 09:00:00 11,8 10,8 4 2 8 4 SSW 1020,1 60 0,0
17.09.2018 08:00:00 9,4 8,5 7 4 10 5 S 1019,8 1 0,0
17.09.2018 07:00:00 9,5 8,2 4 2 13 7 SSW 1019,6 0 0,0
17.09.2018 06:00:00 12,4 9,4 10 6 14 7 S 1019,2 0 0,0
17.09.2018 05:00:00 8,8 8,4 4 2 7 4 SSW 1019,9 0 0,0
17.09.2018 04:00:00 8,9 8,3 4 2 8 4 SSW 1019,8 0 0,0

tt = Température de l'air
td = dewpoint
ff = Vitesse du vent
fx = gusts
dd = Direction du vent
ppp = reduced air pressure
sd = Ensoleillement
rr = Quantités de précipitations

stations d'obs. à proximité